Time;durP1;ratioP1;P1;durP2;ratioP2;P2;SDS_P1;SDS_P2;PMS_P1;PMS_P2;Temp;Humidity;BMP_temperature;BMP_pressure;BME280_temperature;BME280_humidity;BME280_pressure;Samples;Min_cycle;Max_cycle;Signal;HPM_P1;HPM_P2
2022/08/20 00:02:02;;;;;;;8.10;3.00;;;;;;;19.97;79.92;99300.28;5092214;28;20027;-56
2022/08/20 00:04:27;;;;;;;6.43;3.25;;;;;;;20.01;79.73;99293.13;5091854;28;20031;-56
2022/08/20 00:06:52;;;;;;;10.02;3.35;;;;;;;20.04;79.27;99291.72;5092820;28;20077;-56
2022/08/20 00:09:18;;;;;;;5.53;3.17;;;;;;;19.95;79.85;99280.75;5092031;28;20024;-56
2022/08/20 00:11:44;;;;;;;7.22;3.75;;;;;;;20.01;79.38;99279.53;5092043;28;20370;-55
2022/08/20 00:14:09;;;;;;;6.63;3.50;;;;;;;20.01;79.23;99282.25;5091932;28;20503;-56
2022/08/20 00:16:35;;;;;;;6.47;3.42;;;;;;;19.92;80.05;99277.81;5092732;28;20100;-56
2022/08/20 00:19:01;;;;;;;9.73;3.80;;;;;;;20.04;78.64;99273.50;5074377;28;20028;-55
2022/08/20 00:21:27;;;;;;;11.98;3.45;;;;;;;20.11;78.77;99275.78;5091242;28;20028;-58
2022/08/20 00:23:53;;;;;;;7.53;3.67;;;;;;;20.10;78.64;99276.91;5091823;28;20536;-56
2022/08/20 00:26:18;;;;;;;6.50;3.63;;;;;;;20.12;78.63;99284.75;5091978;28;20059;-55
2022/08/20 00:28:44;;;;;;;5.47;3.10;;;;;;;20.08;79.05;99281.03;5091700;28;20075;-56
2022/08/20 00:31:10;;;;;;;7.85;3.60;;;;;;;20.06;79.04;99289.50;5100769;28;20035;-56
2022/08/20 00:33:36;;;;;;;6.82;3.80;;;;;;;20.06;79.23;99294.13;5091638;28;20038;-56
2022/08/20 00:36:05;;;;;;;9.48;3.22;;;;;;;19.97;80.44;99297.56;5091143;28;20016;-55
2022/08/20 00:38:32;;;;;;;4.78;2.70;;;;;;;19.90;80.45;99297.16;5091637;28;20020;-55
2022/08/20 00:40:58;;;;;;;6.88;3.10;;;;;;;19.86;80.69;99298.06;5091310;28;20035;-57
2022/08/20 00:43:50;;;;;;;6.57;3.00;;;;;;;19.82;80.79;99293.25;5090041;28;20158;-57
2022/08/20 00:46:18;;;;;;;5.68;3.05;;;;;;;19.82;81.29;99292.44;5097947;27;20054;-57
2022/08/20 00:48:46;;;;;;;7.53;2.97;;;;;;;19.73;81.54;99292.31;5091070;28;20047;-56
2022/08/20 00:51:31;;;;;;;5.05;2.35;;;;;;;19.69;81.76;99290.50;5090773;28;20038;-55
2022/08/20 00:54:10;;;;;;;5.47;2.50;;;;;;;19.64;81.89;99290.56;5090750;28;20367;-55
2022/08/20 00:56:35;;;;;;;7.00;2.30;;;;;;;19.57;82.37;99288.28;5066470;28;20028;-56
2022/08/20 00:59:01;;;;;;;4.60;2.38;;;;;;;19.66;82.49;99294.59;5089660;28;20077;-56
2022/08/20 01:01:27;;;;;;;5.65;2.63;;;;;;;19.68;82.10;99294.34;5094665;28;20024;-57
2022/08/20 01:03:55;;;;;;;5.18;2.67;;;;;;;19.67;82.66;99289.97;5090818;28;20027;-55
2022/08/20 01:06:21;;;;;;;6.88;2.90;;;;;;;19.59;83.40;99286.88;5090482;28;20462;-56
2022/08/20 01:08:46;;;;;;;4.20;2.55;;;;;;;19.60;83.47;99288.47;5090253;28;20081;-55
2022/08/20 01:11:15;;;;;;;6.20;2.97;;;;;;;19.67;82.97;99292.69;5090816;28;20040;-56
2022/08/20 01:13:41;;;;;;;5.72;2.65;;;;;;;19.63;83.25;99287.06;5090565;28;20040;-55
2022/08/20 01:16:10;;;;;;;8.20;2.65;;;;;;;19.61;84.09;99279.19;5090713;28;20031;-55
2022/08/20 01:18:37;;;;;;;4.22;2.47;;;;;;;19.59;85.08;99276.00;5084355;28;20028;-55
2022/08/20 01:21:03;;;;;;;7.15;3.13;;;;;;;19.51;85.67;99282.09;5090405;28;20035;-56
2022/08/20 01:23:43;;;;;;;6.72;2.83;;;;;;;19.44;86.38;99278.97;5089716;28;20115;-55
2022/08/20 01:26:09;;;;;;;5.88;3.33;;;;;;;19.49;85.39;99278.88;5090735;28;20031;-56
2022/08/20 01:29:00;;;;;;;5.20;2.83;;;;;;;19.59;85.51;99286.88;5089890;28;20028;-57
2022/08/20 01:31:28;;;;;;;5.57;2.90;;;;;;;19.54;86.17;99284.22;5087496;28;20040;-56
2022/08/20 01:33:55;;;;;;;5.32;2.92;;;;;;;19.50;86.60;99276.97;5090569;28;20432;-55
2022/08/20 01:36:26;;;;;;;5.45;2.63;;;;;;;19.57;85.44;99294.50;5089843;28;20047;-58
2022/08/20 01:38:51;;;;;;;6.28;3.13;;;;;;;19.60;85.83;99283.03;5089428;28;20024;-55
2022/08/20 01:41:35;;;;;;;5.70;2.88;;;;;;;19.74;84.81;99276.81;5090276;28;20074;-55
2022/08/20 01:44:00;;;;;;;5.35;2.80;;;;;;;19.75;84.32;99284.69;5099272;28;20060;-55
2022/08/20 01:46:33;;;;;;;4.53;3.03;;;;;;;19.71;85.16;99288.28;5096279;28;20394;-55
2022/08/20 01:48:59;;;;;;;6.38;3.22;;;;;;;19.54;86.37;99286.94;5086597;28;20031;-56
2022/08/20 01:51:28;;;;;;;6.43;3.22;;;;;;;19.62;85.14;99282.72;5089541;28;20385;-58
2022/08/20 01:53:55;;;;;;;5.30;2.90;;;;;;;19.57;86.33;99283.63;5090446;28;20042;-58
2022/08/20 01:56:26;;;;;;;5.97;3.40;;;;;;;19.58;85.27;99277.06;5089108;28;20024;-57
2022/08/20 01:58:53;;;;;;;8.68;3.35;;;;;;;19.53;85.75;99277.16;5096293;28;20035;-57
2022/08/20 02:01:32;;;;;;;7.57;3.35;;;;;;;19.54;85.67;99278.78;5090005;28;20059;-57
2022/08/20 02:03:57;;;;;;;6.85;3.20;;;;;;;19.56;85.11;99275.75;5090082;28;20036;-57
2022/08/20 02:06:24;;;;;;;5.47;2.80;;;;;;;19.55;85.47;99280.41;5090311;28;20036;-57
2022/08/20 02:08:54;;;;;;;6.13;3.38;;;;;;;19.52;85.44;99280.19;5094145;28;20043;-56
2022/08/20 02:11:19;;;;;;;;;;;;;;;19.47;86.31;99275.66;5090973;28;20025;-56
2022/08/20 02:13:48;;;;;;;6.82;3.22;;;;;;;19.50;86.04;99283.22;5089962;28;20289;-55
2022/08/20 02:16:14;;;;;;;5.10;3.10;;;;;;;19.48;86.26;99280.00;5089794;28;20040;-56
2022/08/20 02:18:39;;;;;;;5.80;3.50;;;;;;;19.49;85.70;99276.16;5090410;28;20024;-56
2022/08/20 02:21:05;;;;;;;7.65;3.60;;;;;;;19.49;85.30;99278.88;5089568;28;20023;-56
2022/08/20 02:23:30;;;;;;;4.38;3.17;;;;;;;19.43;86.26;99277.38;5072014;28;20463;-55
2022/08/20 02:25:55;;;;;;;6.85;3.78;;;;;;;19.55;85.11;99285.84;5090151;28;20016;-56
2022/08/20 02:28:21;;;;;;;4.40;3.00;;;;;;;19.50;85.32;99283.22;5090154;28;20343;-56
2022/08/20 02:30:49;;;;;;;4.65;3.33;;;;;;;19.44;86.19;99292.56;5090173;28;20028;-57
2022/08/20 02:33:16;;;;;;;8.20;3.50;;;;;;;19.40;85.97;99291.56;5089869;28;20020;-56
2022/08/20 02:35:41;;;;;;;5.13;3.47;;;;;;;19.30;87.29;99291.75;5089619;28;20032;-57
2022/08/20 02:38:07;;;;;;;7.88;3.80;;;;;;;19.35;86.61;99288.94;5090136;28;20351;-56
2022/08/20 02:40:33;;;;;;;6.70;4.20;;;;;;;19.34;86.62;99295.47;5089970;28;20025;-56
2022/08/20 02:42:59;;;;;;;6.68;3.95;;;;;;;19.23;88.02;99296.75;5088659;28;20247;-57
2022/08/20 02:45:24;;;;;;;12.38;4.70;;;;;;;19.29;87.85;99293.63;5089762;28;20024;-56
2022/08/20 02:47:51;;;;;;;7.25;4.53;;;;;;;19.22;87.73;99284.25;5096544;28;20031;-56
2022/08/20 02:50:17;;;;;;;6.78;4.53;;;;;;;19.22;88.56;99286.97;5101833;28;20509;-56
2022/08/20 02:52:43;;;;;;;7.10;5.03;;;;;;;19.02;90.39;99302.53;5089827;28;20036;-57
2022/08/20 02:55:09;;;;;;;7.78;5.05;;;;;;;19.04;89.89;99300.28;5092670;28;20058;-56
2022/08/20 02:57:34;;;;;;;8.65;5.15;;;;;;;18.88;91.69;99301.66;5094907;28;20513;-56
2022/08/20 03:00:00;;;;;;;7.40;5.45;;;;;;;18.91;91.54;99310.00;5093369;28;20028;-56
2022/08/20 03:02:26;;;;;;;8.50;5.63;;;;;;;18.96;90.87;99307.22;5075172;28;20035;-57
2022/08/20 03:04:51;;;;;;;8.50;5.75;;;;;;;18.97;91.02;99302.63;5093074;28;20025;-56
2022/08/20 03:07:17;;;;;;;8.75;5.82;;;;;;;19.00;91.07;99304.72;5093260;28;20028;-56
2022/08/20 03:09:42;;;;;;;9.35;5.93;;;;;;;18.80;92.55;99308.56;5093364;28;20024;-57
2022/08/20 03:12:08;;;;;;;6.78;5.30;;;;;;;18.73;93.42;99310.81;5093144;28;20027;-56
2022/08/20 03:14:34;;;;;;;7.80;5.43;;;;;;;18.84;92.45;99301.44;5092805;28;20095;-57
2022/08/20 03:16:59;;;;;;;7.78;6.20;;;;;;;18.81;93.41;99310.16;5093313;28;20028;-56
2022/08/20 03:19:25;;;;;;;9.85;7.75;;;;;;;18.56;96.01;99314.03;5092702;28;20122;-56
2022/08/20 03:21:50;;;;;;;10.13;7.90;;;;;;;18.53;96.22;99309.19;5093145;28;20026;-56
2022/08/20 03:24:16;;;;;;;9.05;7.57;;;;;;;18.64;95.55;99305.22;5093095;28;20171;-57
2022/08/20 03:26:41;;;;;;;9.95;7.72;;;;;;;18.68;94.95;99306.25;5092704;28;20115;-57
2022/08/20 03:29:07;;;;;;;10.55;7.25;;;;;;;18.68;95.16;99308.97;5091540;28;20026;-56
2022/08/20 03:31:35;;;;;;;11.38;7.50;;;;;;;18.56;96.06;99316.75;5092667;28;20031;-56
2022/08/20 03:34:01;;;;;;;11.38;6.95;;;;;;;18.64;95.35;99316.09;5093067;28;20044;-56
2022/08/20 03:36:26;;;;;;;11.43;6.97;;;;;;;18.68;94.87;99316.31;5092338;28;20039;-56
2022/08/20 03:38:52;;;;;;;11.90;7.88;;;;;;;18.66;94.98;99313.09;5091316;28;20099;-56
2022/08/20 03:41:17;;;;;;;10.57;7.53;;;;;;;18.64;94.76;99316.09;5093168;28;20016;-56
2022/08/20 03:43:43;;;;;;;8.65;7.32;;;;;;;18.53;95.44;99318.16;5092667;28;20060;-56
2022/08/20 03:46:09;;;;;;;11.45;7.38;;;;;;;18.43;96.41;99309.34;5097451;28;20382;-56
2022/08/20 03:48:34;;;;;;;11.57;8.15;;;;;;;18.44;96.80;99308.22;5092899;28;20462;-55
2022/08/20 03:51:00;;;;;;;10.35;7.47;;;;;;;18.44;96.63;99310.94;5091930;28;20506;-56
2022/08/20 03:53:28;;;;;;;11.18;8.18;;;;;;;18.48;95.91;99312.00;5092433;28;20921;-56
2022/08/20 03:55:54;;;;;;;13.88;7.97;;;;;;;18.46;96.44;99308.75;5092451;28;20032;-56
2022/08/20 03:58:19;;;;;;;12.18;8.15;;;;;;;18.50;96.35;99312.50;5092181;28;20394;-56
2022/08/20 04:00:47;;;;;;;14.90;8.13;;;;;;;18.48;96.26;99315.50;5092729;28;20027;-57
2022/08/20 04:03:13;;;;;;;13.15;8.95;;;;;;;18.40;97.44;99315.38;5093801;28;20035;-56
2022/08/20 04:05:39;;;;;;;14.40;8.88;;;;;;;18.42;96.93;99313.97;5097878;28;20051;-57
2022/08/20 04:08:07;;;;;;;16.95;9.20;;;;;;;18.44;97.25;99317.16;5091990;28;20020;-56
2022/08/20 04:10:33;;;;;;;13.43;8.57;;;;;;;18.38;97.85;99322.97;5092812;28;20031;-56
2022/08/20 04:12:58;;;;;;;14.85;8.30;;;;;;;18.43;97.35;99318.28;5091819;28;20036;-56
2022/08/20 04:15:24;;;;;;;10.25;6.97;;;;;;;18.52;95.79;99318.41;5091464;28;20082;-56
2022/08/20 04:17:49;;;;;;;10.55;7.07;;;;;;;18.60;95.58;99325.13;5092029;28;20031;-56
2022/08/20 04:20:17;;;;;;;10.50;7.30;;;;;;;18.66;95.41;99318.50;5089925;28;20059;-56
2022/08/20 04:22:46;;;;;;;11.00;7.50;;;;;;;18.70;94.92;99317.63;5091713;28;20066;-56
2022/08/20 04:25:11;;;;;;;14.45;8.20;;;;;;;18.71;94.94;99321.16;5092072;28;20028;-56
2022/08/20 04:27:37;;;;;;;9.85;7.18;;;;;;;18.58;96.19;99316.47;5091575;28;20067;-56
2022/08/20 04:30:07;;;;;;;14.35;7.28;;;;;;;18.66;95.19;99313.09;5090544;28;20016;-56
2022/08/20 04:32:35;;;;;;;14.30;8.68;;;;;;;18.62;96.03;99318.31;5056804;28;20036;-56
2022/08/20 04:35:06;;;;;;;12.98;8.25;;;;;;;18.58;96.94;99322.69;5091366;28;20063;-56
2022/08/20 04:37:32;;;;;;;11.32;7.70;;;;;;;18.57;96.13;99315.66;5091660;28;20062;-56
2022/08/20 04:42:42;;;;;;;11.98;8.35;;;;;;;18.43;97.99;99322.91;5090471;28;20094;-56
2022/08/20 04:45:08;;;;;;;10.80;8.25;;;;;;;18.39;98.68;99328.09;5104085;28;20020;-56
2022/08/20 04:47:34;;;;;;;13.90;9.55;;;;;;;18.32;99.35;99324.94;5091363;28;20028;-56
2022/08/20 04:49:59;;;;;;;15.43;9.35;;;;;;;18.28;99.92;99329.34;5095874;28;20028;-56
2022/08/20 04:52:27;;;;;;;14.27;9.60;;;;;;;18.24;100.00;99329.09;5093483;28;20032;-56
2022/08/20 04:54:55;;;;;;;15.88;10.73;;;;;;;18.26;100.00;99326.09;5093644;28;20351;-56
2022/08/20 04:57:22;;;;;;;12.90;9.90;;;;;;;18.28;99.66;99332.84;5097904;27;20075;-56
2022/08/20 04:59:49;;;;;;;15.23;8.95;;;;;;;18.44;98.70;99333.47;5090881;28;20028;-55
2022/08/20 05:02:17;;;;;;;13.38;8.13;;;;;;;18.61;96.04;99338.38;5091181;28;20039;-56
2022/08/20 05:04:42;;;;;;;13.88;8.55;;;;;;;18.71;96.06;99342.88;5091041;28;20143;-56
2022/08/20 05:07:10;;;;;;;12.95;8.10;;;;;;;18.74;95.44;99347.72;5091265;28;20107;-56
2022/08/20 05:09:35;;;;;;;11.32;7.70;;;;;;;18.75;95.75;99350.16;5091119;28;20032;-56
2022/08/20 05:12:00;;;;;;;11.98;8.00;;;;;;;18.78;95.51;99343.34;5091080;28;20683;-56
2022/08/20 05:14:28;;;;;;;13.50;8.98;;;;;;;18.51;97.01;99354.81;5090716;28;20655;-57
2022/08/20 05:16:56;;;;;;;13.73;7.85;;;;;;;18.65;96.49;99354.91;5089299;28;20035;-56
2022/08/20 05:19:21;;;;;;;12.43;7.15;;;;;;;18.79;95.58;99355.81;5090687;28;20414;-57
2022/08/20 05:21:47;;;;;;;14.10;6.88;;;;;;;18.90;94.53;99362.72;5090616;28;20099;-57
2022/08/20 05:24:12;;;;;;;11.10;7.47;;;;;;;18.90;94.43;99362.72;5091137;28;20031;-56
2022/08/20 05:26:38;;;;;;;10.88;7.70;;;;;;;18.90;94.30;99370.06;5091119;28;20028;-56
2022/08/20 05:29:04;;;;;;;11.55;8.80;;;;;;;18.89;94.18;99371.16;5089805;28;20019;-56
2022/08/20 05:31:31;;;;;;;12.10;8.32;;;;;;;18.91;94.05;99367.03;5090521;28;20016;-57
2022/08/20 05:33:57;;;;;;;12.07;7.32;;;;;;;18.95;93.77;99372.72;5090525;28;20077;-56
2022/08/20 05:36:22;;;;;;;12.55;7.70;;;;;;;18.99;93.41;99367.47;5090285;28;20028;-57
2022/08/20 05:38:48;;;;;;;12.32;8.40;;;;;;;19.02;93.94;99375.03;5090608;28;20039;-56
2022/08/20 05:41:13;;;;;;;16.42;8.25;;;;;;;18.73;95.42;99379.47;5089462;28;20036;-57
2022/08/20 05:43:39;;;;;;;10.27;7.38;;;;;;;18.84;94.06;99376.66;5090500;28;20028;-57
2022/08/20 05:46:04;;;;;;;10.35;7.32;;;;;;;18.98;93.96;99376.75;5090537;28;20020;-58
2022/08/20 05:48:34;;;;;;;9.65;7.07;;;;;;;19.04;93.21;99379.06;5089079;28;20098;-56
2022/08/20 05:50:59;;;;;;;12.90;6.70;;;;;;;19.07;92.94;99381.22;5088868;28;20413;-57
2022/08/20 05:53:25;;;;;;;9.52;5.88;;;;;;;19.25;91.15;99382.28;5093502;28;20046;-57
2022/08/20 05:55:51;;;;;;;9.55;6.50;;;;;;;19.37;91.95;99381.84;5092975;28;20038;-57
2022/08/20 05:58:22;;;;;;;8.23;6.28;;;;;;;19.21;91.88;99388.63;5093435;28;20471;-57
2022/08/20 06:00:48;;;;;;;7.85;5.60;;;;;;;19.28;91.47;99380.91;5095887;28;20470;-58
2022/08/20 06:05:57;;;;;;;8.05;5.07;;;;;;;19.51;90.01;99376.44;5090008;28;20039;-57
2022/08/20 06:08:23;;;;;;;8.98;5.13;;;;;;;19.49;89.33;99370.47;5090310;28;20024;-57
2022/08/20 06:10:49;;;;;;;12.05;5.07;;;;;;;19.49;88.81;99374.00;5090391;28;20081;-57
2022/08/20 06:13:14;;;;;;;8.88;4.78;;;;;;;19.38;89.24;99378.00;5090003;28;20055;-57
2022/08/20 06:15:39;;;;;;;8.13;4.47;;;;;;;19.44;88.71;99373.28;5091885;28;20035;-57
2022/08/20 06:18:06;;;;;;;6.78;4.95;;;;;;;19.38;88.96;99378.00;5088975;28;20028;-57
2022/08/20 06:20:33;;;;;;;6.68;4.60;;;;;;;19.45;88.67;99378.44;5089809;28;20032;-57
2022/08/20 06:22:59;;;;;;;9.57;4.55;;;;;;;19.48;87.96;99377.84;5090216;28;20398;-56
2022/08/20 06:25:24;;;;;;;8.10;4.40;;;;;;;19.52;86.47;99384.31;5090001;28;20112;-56
2022/08/20 06:27:49;;;;;;;9.68;4.05;;;;;;;19.91;83.84;99372.22;5090094;28;20027;-57
2022/08/20 06:30:16;;;;;;;6.50;4.20;;;;;;;20.26;82.21;99386.22;5092487;28;20039;-57
2022/08/20 06:32:41;;;;;;;12.20;4.15;;;;;;;20.57;79.86;99374.75;5094169;28;20032;-56
2022/08/20 06:35:07;;;;;;;9.32;4.45;;;;;;;20.72;78.40;99377.16;5093388;28;20034;-57
2022/08/20 06:37:35;;;;;;;5.40;3.90;;;;;;;21.48;76.15;99371.84;5094003;28;20145;-56
2022/08/20 06:40:22;;;;;;;8.80;3.83;;;;;;;24.32;64.97;99386.38;5094046;28;20103;-57
2022/08/20 06:42:48;;;;;;;7.85;4.00;;;;;;;22.68;68.46;99384.69;5101004;28;20024;-57
2022/08/20 06:45:16;;;;;;;9.20;3.58;;;;;;;21.97;70.29;99380.13;5094236;28;20328;-57
2022/08/20 06:47:42;;;;;;;5.68;3.58;;;;;;;21.21;72.26;99389.09;5094130;28;20024;-58
2022/08/20 06:50:13;;;;;;;7.40;3.20;;;;;;;21.79;70.54;99381.97;5101923;27;20024;-57
2022/08/20 06:52:39;;;;;;;5.55;3.40;;;;;;;21.54;71.34;99377.94;5092265;28;20518;-57
2022/08/20 06:55:06;;;;;;;5.32;3.30;;;;;;;21.78;70.65;99382.28;5098792;28;20028;-57
2022/08/20 06:57:33;;;;;;;11.68;3.45;;;;;;;21.86;70.52;99378.78;5093588;28;20024;-57
2022/08/20 06:59:59;;;;;;;7.70;3.60;;;;;;;21.81;70.08;99381.63;5102323;28;20027;-56
2022/08/20 07:02:24;;;;;;;9.57;3.50;;;;;;;22.26;69.20;99376.06;5093435;28;20031;-57
2022/08/20 07:04:49;;;;;;;7.05;3.95;;;;;;;22.37;68.46;99380.16;5095759;28;20023;-57
2022/08/20 07:07:16;;;;;;;11.05;3.50;;;;;;;22.77;66.88;99374.59;5093545;28;20439;-57
2022/08/20 07:09:42;;;;;;;6.00;3.45;;;;;;;23.14;65.25;99380.56;5093822;28;20039;-56
2022/08/20 07:12:08;;;;;;;9.00;3.40;;;;;;;25.30;59.60;99385.44;5093114;28;20020;-56
2022/08/20 07:14:34;;;;;;;5.90;3.25;;;;;;;24.13;61.64;99394.22;5111553;27;20516;-58
2022/08/20 07:17:02;;;;;;;10.15;3.70;;;;;;;23.50;63.48;99387.63;5114402;27;20027;-56
2022/08/20 07:19:27;;;;;;;8.25;3.95;;;;;;;23.23;64.46;99389.56;5113552;28;20049;-55
2022/08/20 07:21:53;;;;;;;4.70;3.22;;;;;;;23.24;64.79;99391.19;5095290;28;20035;-57
2022/08/20 07:24:18;;;;;;;6.80;3.30;;;;;;;23.30;64.82;99395.38;5113423;27;20032;-57
2022/08/20 07:26:44;;;;;;;6.43;3.45;;;;;;;23.25;64.63;99388.13;5094930;28;20473;-56
2022/08/20 07:29:09;;;;;;;6.10;3.40;;;;;;;23.09;65.15;99388.94;5099989;28;20422;-56
2022/08/20 07:34:19;;;;;;;7.05;3.38;;;;;;;23.48;63.23;99393.41;5113336;27;20088;-56
2022/08/20 07:36:47;;;;;;;5.15;3.00;;;;;;;25.61;55.99;99396.75;5113131;27;20024;-56
2022/08/20 07:39:13;;;;;;;5.60;2.58;;;;;;;25.65;55.75;99398.81;5113183;27;20138;-56
2022/08/20 07:41:38;;;;;;;4.18;2.75;;;;;;;25.45;54.10;99395.78;5113008;27;20114;-57
2022/08/20 07:44:04;;;;;;;7.10;2.95;;;;;;;24.14;57.42;99401.31;5113008;27;20484;-56
2022/08/20 07:46:30;;;;;;;5.00;2.97;;;;;;;23.73;58.00;99410.13;5113123;27;20038;-57
2022/08/20 07:48:55;;;;;;;6.93;2.67;;;;;;;24.96;54.82;99403.75;5113142;27;20474;-56
2022/08/20 07:51:21;;;;;;;6.05;2.80;;;;;;;26.14;51.44;99401.69;5112067;27;20470;-55
2022/08/20 07:53:46;;;;;;;6.20;2.90;;;;;;;25.32;53.14;99394.94;5112764;27;20036;-56
2022/08/20 07:56:14;;;;;;;5.80;3.03;;;;;;;27.24;48.95;99398.81;5115891;27;20020;-56
2022/08/20 07:58:51;;;;;;;5.55;2.80;;;;;;;28.08;47.05;99397.94;5112912;27;20128;-56
2022/08/20 08:01:28;;;;;;;3.20;2.35;;;;;;;29.13;43.38;99401.94;5112536;27;20023;-56
2022/08/20 08:03:53;;;;;;;6.20;2.40;;;;;;;28.42;43.23;99398.34;5112813;28;20112;-56
2022/08/20 08:06:20;;;;;;;3.85;2.38;;;;;;;28.54;42.33;99402.97;5112057;28;20028;-56
2022/08/20 08:08:45;;;;;;;8.15;2.55;;;;;;;28.26;43.28;99395.59;5122742;27;20389;-55
2022/08/20 08:11:11;;;;;;;5.32;2.42;;;;;;;26.71;45.53;99392.53;5112328;28;20019;-55
2022/08/20 08:13:37;;;;;;;4.68;2.30;;;;;;;26.92;45.92;99391.56;5093997;28;20054;-56
2022/08/20 08:16:04;;;;;;;3.38;2.40;;;;;;;28.47;42.51;99398.09;5112447;27;20044;-56
2022/08/20 08:18:33;;;;;;;3.55;2.30;;;;;;;29.02;41.24;99407.19;5093889;27;20030;-55
2022/08/20 08:20:58;;;;;;;4.13;2.17;;;;;;;29.73;40.29;99407.06;5071462;27;20023;-55
2022/08/20 08:23:24;;;;;;;3.28;2.30;;;;;;;29.81;40.41;99405.22;5112479;27;20038;-57
2022/08/20 08:25:52;;;;;;;3.55;2.20;;;;;;;29.76;40.32;99405.53;5112341;27;20098;-56
2022/08/20 08:28:19;;;;;;;4.57;2.25;;;;;;;29.55;39.82;99401.16;5112220;27;20482;-56
2022/08/20 08:30:45;;;;;;;5.90;2.38;;;;;;;30.50;36.81;99413.47;5112381;27;20035;-56
2022/08/20 08:33:27;;;;;;;3.20;2.10;;;;;;;30.23;36.03;99402.41;5112184;27;20022;-55
2022/08/20 08:36:01;;;;;;;3.90;2.25;;;;;;;28.37;36.89;99409.63;5111735;28;20028;-57
2022/08/20 08:38:31;;;;;;;3.42;2.10;;;;;;;29.35;35.98;99408.66;5112609;27;20019;-56
2022/08/20 08:40:57;;;;;;;2.90;1.80;;;;;;;30.09;33.96;99405.72;5111789;27;20016;-57
2022/08/20 08:43:24;;;;;;;3.05;1.70;;;;;;;28.15;33.73;99409.09;5099658;27;20035;-56
2022/08/20 08:46:00;;;;;;;4.40;1.80;;;;;;;26.51;35.83;99404.41;5096088;28;20058;-56
2022/08/20 08:48:31;;;;;;;2.47;1.60;;;;;;;26.62;34.45;99406.38;5119489;27;20377;-56
2022/08/20 08:50:58;;;;;;;5.40;1.55;;;;;;;27.86;30.47;99395.78;5111285;27;20435;-56
2022/08/20 08:53:25;;;;;;;21.30;3.90;;;;;;;28.98;30.76;99406.31;5093633;27;20277;-56
2022/08/20 08:55:50;;;;;;;6.25;1.95;;;;;;;29.78;29.94;99417.81;5076718;28;20030;-56
2022/08/20 08:58:16;;;;;;;18.63;2.38;;;;;;;29.67;32.11;99416.81;5093694;27;20031;-56
2022/08/20 09:00:41;;;;;;;6.70;2.10;;;;;;;29.64;34.84;99412.78;5111608;27;20026;-56
2022/08/20 09:03:14;;;;;;;22.17;3.28;;;;;;;28.94;36.63;99405.44;5092576;27;20030;-56
2022/08/20 09:05:53;;;;;;;3.03;1.90;;;;;;;27.96;37.22;99403.53;5084801;27;20604;-57
2022/08/20 09:08:23;;;;;;;8.85;2.33;;;;;;;28.80;36.90;99405.91;5106840;27;20456;-56
2022/08/20 09:10:49;;;;;;;2.15;1.67;;;;;;;29.26;35.29;99405.34;5093426;28;20028;-56
2022/08/20 09:13:14;;;;;;;4.75;1.70;;;;;;;28.56;35.80;99400.66;5111631;27;20055;-55
2022/08/20 09:15:39;;;;;;;5.60;1.80;;;;;;;27.62;37.10;99408.50;5111606;27;20458;-57
2022/08/20 09:18:05;;;;;;;3.67;1.75;;;;;;;27.92;36.37;99408.13;5077618;28;20394;-56
2022/08/20 09:20:30;;;;;;;5.20;1.70;;;;;;;29.37;34.44;99405.56;5110843;27;20015;-56
2022/08/20 09:22:56;;;;;;;3.13;1.83;;;;;;;29.32;33.60;99405.84;5098478;27;20032;-56
2022/08/20 09:25:21;;;;;;;4.95;1.90;;;;;;;28.04;34.82;99401.75;5093109;28;20023;-56
2022/08/20 09:27:47;;;;;;;4.10;1.88;;;;;;;29.11;33.58;99409.78;5106348;28;20032;-56
2022/08/20 09:30:13;;;;;;;5.75;1.70;;;;;;;29.86;31.92;99399.41;5076265;28;20024;-56
2022/08/20 09:32:38;;;;;;;2.42;1.63;;;;;;;29.74;31.05;99407.84;5111377;27;20032;-55
2022/08/20 09:35:04;;;;;;;2.42;1.65;;;;;;;30.17;30.76;99398.31;5111635;27;20047;-56
2022/08/20 09:37:30;;;;;;;4.10;1.70;;;;;;;30.38;30.32;99399.84;5110775;27;20031;-57
2022/08/20 09:39:56;;;;;;;4.60;1.50;;;;;;;30.25;28.89;99402.84;5111227;27;20020;-57
2022/08/20 09:42:23;;;;;;;1.80;1.40;;;;;;;30.74;27.63;99399.22;5093052;28;20140;-56
2022/08/20 09:44:49;;;;;;;2.42;1.50;;;;;;;30.04;29.08;99394.97;5110946;28;20120;-56
2022/08/20 09:47:16;;;;;;;6.10;1.90;;;;;;;29.79;29.40;99397.31;5092910;28;20266;-55
2022/08/20 09:49:41;;;;;;;2.60;1.67;;;;;;;29.42;29.11;99403.28;5110525;28;20039;-57
2022/08/20 09:52:09;;;;;;;2.28;1.80;;;;;;;29.79;28.32;99402.81;5110786;28;20027;-56
2022/08/20 09:54:35;;;;;;;4.20;1.70;;;;;;;30.10;29.11;99403.72;5110817;28;20401;-56
2022/08/20 09:57:02;;;;;;;5.60;1.83;;;;;;;30.64;27.85;99393.53;5110740;28;20028;-57
2022/08/20 09:59:28;;;;;;;2.10;1.50;;;;;;;29.56;28.43;99396.47;5110902;28;20053;-55
2022/08/20 10:01:54;;;;;;;2.80;1.67;;;;;;;30.03;27.41;99392.56;5092953;28;20031;-57
2022/08/20 10:04:19;;;;;;;6.07;1.77;;;;;;;29.73;28.01;99392.44;5111341;28;20046;-56
2022/08/20 10:06:45;;;;;;;11.02;1.90;;;;;;;29.45;28.62;99399.00;5114596;27;20023;-56
2022/08/20 10:09:10;;;;;;;13.82;2.30;;;;;;;28.68;29.85;99396.97;5114990;27;20015;-56
2022/08/20 10:11:35;;;;;;;15.38;1.90;;;;;;;29.94;30.06;99397.56;5096319;27;20027;-55
2022/08/20 10:14:01;;;;;;;10.05;2.33;;;;;;;28.27;40.83;99404.66;5114361;27;20044;-56
2022/08/20 10:16:27;;;;;;;4.88;2.03;;;;;;;29.16;39.91;99403.97;5121112;27;20075;-55
2022/08/20 10:18:52;;;;;;;4.70;2.15;;;;;;;27.71;42.13;99397.34;5114631;27;20063;-56
2022/08/20 10:21:18;;;;;;;3.92;2.20;;;;;;;26.33;44.42;99399.16;5113977;27;20031;-56
2022/08/20 10:23:44;;;;;;;5.47;2.10;;;;;;;25.65;46.87;99396.88;5114858;27;20031;-55
2022/08/20 10:26:10;;;;;;;7.00;2.40;;;;;;;26.80;43.73;99403.38;5115671;27;20026;-54
2022/08/20 10:28:35;;;;;;;3.85;2.45;;;;;;;26.37;45.52;99400.06;5096692;28;20080;-55
2022/08/20 10:31:03;;;;;;;4.03;2.40;;;;;;;27.00;44.88;99398.88;5114353;27;20020;-56
2022/08/20 10:33:28;;;;;;;5.93;2.10;;;;;;;27.81;41.81;99404.25;5114565;27;20028;-56
2022/08/20 10:35:57;;;;;;;4.25;2.20;;;;;;;28.23;40.80;99399.09;5113619;27;20511;-56
2022/08/20 10:38:22;;;;;;;5.40;2.20;;;;;;;27.86;42.25;99402.09;5121402;27;20035;-56
2022/08/20 10:40:48;;;;;;;4.50;2.10;;;;;;;27.94;42.79;99405.84;5114634;27;20019;-56
2022/08/20 10:43:13;;;;;;;5.20;2.00;;;;;;;28.36;41.11;99410.81;5121832;27;20035;-55
2022/08/20 10:45:38;;;;;;;7.00;2.03;;;;;;;27.32;42.38;99400.63;5115579;27;20069;-54
2022/08/20 10:48:06;;;;;;;4.75;2.20;;;;;;;26.29;44.54;99411.19;5114088;27;20027;-55
2022/08/20 10:50:31;;;;;;;10.32;2.20;;;;;;;25.67;45.00;99407.50;5113427;27;20106;-55
2022/08/20 10:52:57;;;;;;;4.13;1.90;;;;;;;26.19;43.85;99409.69;5110742;27;20398;-54
2022/08/20 10:55:22;;;;;;;4.18;2.13;;;;;;;26.90;42.93;99400.94;5120512;27;20466;-55
2022/08/20 10:57:48;;;;;;;4.53;1.83;;;;;;;25.58;44.23;99405.63;5113873;27;20023;-54
2022/08/20 11:00:14;;;;;;;4.20;1.92;;;;;;;26.35;42.82;99413.34;5113565;27;20088;-55
2022/08/20 11:02:39;;;;;;;2.83;1.85;;;;;;;26.17;43.46;99409.22;5095766;27;20032;-55
2022/08/20 11:05:05;;;;;;;2.92;2.00;;;;;;;25.56;44.20;99415.34;5113312;27;20028;-55
2022/08/20 11:07:36;;;;;;;4.63;1.95;;;;;;;26.08;42.87;99414.03;5095390;27;20077;-55
2022/08/20 11:10:02;;;;;;;3.47;2.00;;;;;;;26.68;41.53;99409.69;5113966;27;20545;-55
2022/08/20 11:12:27;;;;;;;3.22;1.90;;;;;;;27.36;40.87;99406.22;5113703;27;20031;-56
2022/08/20 11:14:53;;;;;;;5.80;2.05;;;;;;;27.40;40.45;99412.63;5119130;27;20088;-56
2022/08/20 11:17:20;;;;;;;7.88;1.90;;;;;;;26.99;40.10;99413.78;5113577;27;20032;-55
2022/08/20 11:19:45;;;;;;;4.03;1.90;;;;;;;26.95;39.15;99419.16;5113021;27;20028;-55
2022/08/20 11:22:11;;;;;;;4.70;2.10;;;;;;;27.45;38.58;99414.31;5113132;27;20035;-56
2022/08/20 11:24:36;;;;;;;2.80;1.80;;;;;;;27.57;37.97;99417.03;5113413;27;20020;-54
2022/08/20 11:27:02;;;;;;;3.22;1.70;;;;;;;27.17;38.36;99417.84;5113583;27;20011;-55
2022/08/20 11:29:27;;;;;;;4.75;1.90;;;;;;;27.62;36.76;99408.50;5094995;27;20047;-55
2022/08/20 11:31:53;;;;;;;2.92;1.80;;;;;;;27.11;38.11;99413.75;5113565;27;20369;-55
2022/08/20 11:34:18;;;;;;;7.05;1.70;;;;;;;27.25;38.11;99416.91;5101270;28;20301;-55
2022/08/20 11:36:44;;;;;;;5.10;1.75;;;;;;;27.44;36.63;99412.72;5112992;27;20034;-55
2022/08/20 11:39:09;;;;;;;2.42;1.50;;;;;;;26.72;37.87;99427.09;5094585;28;20032;-56